Time;durP1;ratioP1;P1;durP2;ratioP2;P2;SDS_P1;SDS_P2;PMS_P1;PMS_P2;Temp;Humidity;BMP_temperature;BMP_pressure;BME280_temperature;BME280_humidity;BME280_pressure;Samples;Min_cycle;Max_cycle;Signal;HPM_P1;HPM_P2
2023/01/05 00:01:38;;;;;;;0.05;0.05;;;9.90;99.90;12.80;163505.00;;;;4998487;28;20254;-77
2023/01/05 00:04:07;;;;;;;0.10;0.10;;;9.90;99.90;12.80;163505.00;;;;4998992;28;20216;-77
2023/01/05 00:06:36;;;;;;;0.10;0.10;;;9.90;99.90;12.80;163505.00;;;;4986084;28;20712;-78
2023/01/05 00:09:04;;;;;;;0.10;0.10;;;9.90;99.90;12.80;163505.00;;;;4997130;28;20323;-77
2023/01/05 00:22:46;;;;;;;0.10;0.10;;;10.30;99.90;12.80;163505.00;;;;5002018;28;20213;-76
2023/01/05 00:25:17;;;;;;;0.10;0.10;;;10.40;99.90;12.80;163505.00;;;;5007087;28;20314;-77
2023/01/05 00:27:49;;;;;;;0.10;0.10;;;10.40;99.90;12.80;163505.00;;;;5004154;28;20680;-77
2023/01/05 00:30:21;;;;;;;0.10;0.10;;;10.40;99.90;12.80;163505.00;;;;5005849;28;20208;-76
2023/01/05 00:32:50;;;;;;;0.00;0.00;;;10.50;99.90;12.80;163505.00;;;;5001655;28;20199;-77
2023/01/05 00:35:18;;;;;;;0.10;0.10;;;10.50;99.90;12.80;163505.00;;;;4987873;28;20199;-77
2023/01/05 00:37:48;;;;;;;0.10;0.10;;;10.50;99.90;12.80;163505.00;;;;5005091;28;20220;-77
2023/01/05 00:40:19;;;;;;;0.05;0.05;;;10.50;99.90;12.80;163505.00;;;;4997029;28;20211;-77
2023/01/05 00:42:48;;;;;;;0.10;0.10;;;10.50;99.90;12.80;163505.00;;;;4999967;28;20201;-77
2023/01/05 00:45:20;;;;;;;0.08;0.08;;;10.50;99.90;12.80;163505.00;;;;5002070;28;20195;-78
2023/01/05 00:47:50;;;;;;;0.10;0.10;;;10.50;99.90;12.80;163505.00;;;;4998552;28;20247;-78
2023/01/05 00:50:20;;;;;;;0.10;0.10;;;10.40;99.90;12.80;163505.00;;;;5005014;28;20226;-77
2023/01/05 00:52:48;;;;;;;0.10;0.10;;;10.50;99.90;12.80;163505.00;;;;5017269;28;20218;-77
2023/01/05 00:55:17;;;;;;;0.10;0.10;;;10.40;99.90;12.80;163505.00;;;;4965545;28;20876;-77
2023/01/05 00:57:45;;;;;;;0.10;0.10;;;10.40;99.90;12.80;163505.00;;;;4998552;28;20296;-78
2023/01/05 01:00:18;;;;;;;0.10;0.10;;;10.40;99.90;12.80;163505.00;;;;4993897;28;20204;-77
2023/01/05 01:02:47;;;;;;;0.10;0.10;;;10.30;99.90;12.80;163505.00;;;;5005183;28;20195;-77
2023/01/05 01:05:15;;;;;;;0.10;0.10;;;10.30;99.90;12.80;163505.00;;;;4986871;28;20205;-78
2023/01/05 01:07:43;;;;;;;0.10;0.10;;;10.30;99.90;12.80;163505.00;;;;5003372;28;20676;-77
2023/01/05 01:10:12;;;;;;;0.10;0.10;;;10.20;99.90;12.80;163505.00;;;;4985294;28;20480;-77
2023/01/05 01:12:40;;;;;;;0.10;0.10;;;10.20;99.90;12.80;163505.00;;;;5004372;28;20665;-77
2023/01/05 01:15:09;;;;;;;0.10;0.10;;;10.20;99.90;12.80;163505.00;;;;5001668;28;20195;-78
2023/01/05 01:17:38;;;;;;;0.10;0.10;;;10.20;99.90;12.80;163505.00;;;;4999265;28;20216;-78
2023/01/05 01:20:08;;;;;;;0.10;0.10;;;10.30;99.90;12.80;163505.00;;;;4986366;28;20195;-78
2023/01/05 01:22:36;;;;;;;0.10;0.10;;;10.30;99.90;12.80;163505.00;;;;4995954;28;20204;-78
2023/01/05 01:25:05;;;;;;;0.10;0.10;;;10.20;99.90;12.80;163505.00;;;;5005032;28;20581;-78
2023/01/05 01:27:34;;;;;;;0.00;0.00;;;10.20;99.90;12.80;163505.00;;;;4998959;28;20192;-77
2023/01/05 01:30:02;;;;;;;0.03;0.03;;;10.20;99.90;12.80;163505.00;;;;4985076;28;20217;-79
2023/01/05 01:32:30;;;;;;;0.10;0.10;;;10.10;99.90;12.80;163505.00;;;;4999497;28;20215;-79
2023/01/05 01:34:59;;;;;;;0.10;0.10;;;10.10;99.90;12.80;163505.00;;;;4977484;28;20224;-78
2023/01/05 01:37:27;;;;;;;0.10;0.10;;;10.10;99.90;12.80;163505.00;;;;4990239;28;20239;-77
2023/01/05 01:39:57;;;;;;;0.10;0.10;;;10.00;99.90;12.80;163505.00;;;;4973301;28;20284;-76
2023/01/05 01:42:25;;;;;;;0.10;0.10;;;10.00;99.90;12.80;163505.00;;;;5003696;28;20199;-77
2023/01/05 01:44:58;;;;;;;0.10;0.10;;;10.00;99.90;12.80;163505.00;;;;5004168;28;20568;-77
2023/01/05 01:47:41;;;;;;;0.10;0.10;;;9.90;99.90;12.80;163505.00;;;;4991396;28;20674;-78
2023/01/05 01:50:18;;;;;;;0.10;0.10;;;9.90;99.90;12.80;163505.00;;;;4986188;28;20203;-77
2023/01/05 01:52:52;;;;;;;0.10;0.10;;;9.90;99.90;12.80;163505.00;;;;4992890;28;20557;-78
2023/01/05 01:55:21;;;;;;;0.10;0.10;;;9.90;99.90;12.80;163505.00;;;;5001128;28;20653;-77
2023/01/05 01:57:51;;;;;;;0.10;0.10;;;9.90;99.90;12.80;163505.00;;;;4998838;28;20271;-78
2023/01/05 02:00:20;;;;;;;0.10;0.10;;;9.80;99.90;12.80;163505.00;;;;4990465;28;20207;-78
2023/01/05 02:02:55;;;;;;;0.10;0.10;;;9.80;99.90;12.80;163505.00;;;;5008312;28;20483;-77
2023/01/05 02:05:30;;;;;;;0.10;0.10;;;9.80;99.90;12.80;163505.00;;;;4992202;28;20209;-78
2023/01/05 02:07:58;;;;;;;0.10;0.10;;;9.80;99.90;12.80;163505.00;;;;4998853;28;20200;-77
2023/01/05 02:10:49;;;;;;;0.10;0.10;;;9.80;99.90;12.80;163505.00;;;;5002895;28;20694;-78
2023/01/05 02:13:43;;;;;;;0.10;0.10;;;9.80;99.90;12.80;163505.00;;;;4987879;28;20546;-78
2023/01/05 02:16:24;;;;;;;0.10;0.10;;;9.80;99.90;12.80;163505.00;;;;4977165;28;20705;-76
2023/01/05 02:19:33;;;;;;;0.10;0.10;;;9.80;99.90;12.80;163505.00;;;;4996904;28;20232;-78
2023/01/05 02:22:30;;;;;;;0.10;0.10;;;9.90;99.90;12.80;163505.00;;;;5002866;28;20214;-76
2023/01/05 02:25:29;;;;;;;0.10;0.10;;;9.90;99.90;12.80;163505.00;;;;5006411;28;20188;-76
2023/01/05 02:28:12;;;;;;;0.10;0.10;;;9.90;99.90;12.80;163505.00;;;;4970119;28;20228;-75
2023/01/05 02:31:06;;;;;;;0.10;0.10;;;10.00;99.90;12.80;163505.00;;;;4981856;28;20196;-76
2023/01/05 02:33:54;;;;;;;0.10;0.10;;;10.00;99.90;12.80;163505.00;;;;4998738;28;20614;-78
2023/01/05 02:36:29;;;;;;;0.10;0.10;;;10.00;99.90;12.80;163505.00;;;;4977626;28;20219;-78
2023/01/05 02:39:11;;;;;;;0.10;0.10;;;10.00;99.90;12.80;163505.00;;;;5000604;28;20277;-78
2023/01/05 02:41:47;;;;;;;0.10;0.10;;;10.00;99.90;12.80;163505.00;;;;4993963;28;20196;-79
2023/01/05 02:44:18;;;;;;;0.10;0.10;;;10.00;99.90;12.80;163505.00;;;;5021323;28;20196;-77
2023/01/05 02:47:02;;;;;;;0.10;0.10;;;10.00;99.90;12.80;163505.00;;;;4994829;28;20219;-77
2023/01/05 02:49:35;;;;;;;0.10;0.10;;;10.00;99.90;12.80;163505.00;;;;4972450;28;20238;-78
2023/01/05 02:52:08;;;;;;;0.10;0.10;;;10.00;99.90;12.80;163505.00;;;;5001113;28;20263;-78
2023/01/05 02:54:45;;;;;;;0.10;0.10;;;10.10;99.90;12.80;163505.00;;;;4993629;28;20210;-79
2023/01/05 02:57:19;;;;;;;0.10;0.10;;;10.10;99.90;12.80;163505.00;;;;4994652;28;20231;-78
2023/01/05 02:59:54;;;;;;;0.00;0.00;;;10.10;99.90;12.80;163505.00;;;;4971847;28;20207;-77
2023/01/05 03:02:31;;;;;;;0.10;0.10;;;10.00;99.90;12.80;163505.00;;;;5001581;28;20547;-78
2023/01/05 03:05:08;;;;;;;0.10;0.10;;;10.00;99.90;12.80;163505.00;;;;4984505;28;20202;-79
2023/01/05 03:07:40;;;;;;;0.10;0.10;;;10.00;99.90;12.80;163505.00;;;;4975521;28;20290;-80
2023/01/05 03:16:00;;;;;;;0.10;0.10;;;9.90;99.90;12.80;163505.00;;;;4979636;28;20706;-81
2023/01/05 03:19:34;;;;;;;0.10;0.10;;;9.90;99.90;12.80;163505.00;;;;4995458;28;20247;-79
2023/01/05 03:21:23;;;;;;;0.10;0.10;;;9.90;99.90;12.80;163505.00;;;;4976111;28;20204;-80
2023/01/05 03:35:31;;;;;;;0.10;0.10;;;9.80;99.90;12.80;163505.00;;;;4998166;28;20224;-80
2023/01/05 03:38:13;;;;;;;0.10;0.10;;;9.90;99.90;12.80;163505.00;;;;4979792;28;20312;-80
2023/01/05 03:40:50;;;;;;;0.10;0.10;;;10.00;99.90;12.80;163505.00;;;;4986599;28;20275;-78
2023/01/05 03:43:21;;;;;;;0.10;0.10;;;10.20;99.90;12.80;163505.00;;;;4981337;28;20196;-79
2023/01/05 03:45:54;;;;;;;0.10;0.10;;;10.30;99.90;12.80;163505.00;;;;5009350;28;20212;-79
2023/01/05 03:48:27;;;;;;;0.10;0.10;;;10.40;99.90;12.80;163505.00;;;;5006593;28;20194;-80
2023/01/05 03:50:57;;;;;;;0.10;0.10;;;10.50;99.90;12.80;163505.00;;;;4985308;28;20247;-80
2023/01/05 03:53:26;;;;;;;0.10;0.10;;;10.40;99.90;12.80;163505.00;;;;4994470;28;20313;-80
2023/01/05 03:55:54;;;;;;;0.10;0.10;;;10.40;99.90;12.80;163505.00;;;;4990662;28;20233;-80
2023/01/05 03:58:24;;;;;;;0.10;0.10;;;10.40;99.90;12.80;163505.00;;;;4976503;28;20300;-80
2023/01/05 04:00:53;;;;;;;0.10;0.10;;;10.50;99.90;12.80;163505.00;;;;5001886;28;20201;-81
2023/01/05 04:03:23;;;;;;;0.10;0.10;;;10.50;99.90;12.80;163505.00;;;;4973378;28;20199;-79
2023/01/05 04:06:01;;;;;;;0.10;0.10;;;10.60;99.90;12.80;163505.00;;;;4983050;28;20307;-80
2023/01/05 04:08:30;;;;;;;0.10;0.10;;;10.60;99.90;12.80;163505.00;;;;4977311;28;20645;-80
2023/01/05 04:11:12;;;;;;;0.10;0.10;;;10.60;99.90;12.80;163505.00;;;;4986281;28;20200;-78
2023/01/05 04:13:41;;;;;;;0.10;0.10;;;10.60;99.90;12.80;163505.00;;;;4980114;28;20192;-80
2023/01/05 04:16:09;;;;;;;0.10;0.10;;;10.70;99.90;12.80;163505.00;;;;4993366;28;20223;-79
2023/01/05 04:18:39;;;;;;;0.10;0.10;;;10.70;99.90;12.80;163505.00;;;;4980945;28;20227;-80
2023/01/05 04:21:11;;;;;;;0.10;0.10;;;10.60;99.90;12.80;163505.00;;;;5001502;28;20498;-78
2023/01/05 04:23:39;;;;;;;0.10;0.10;;;10.70;99.90;12.80;163505.00;;;;5008499;28;20204;-78
2023/01/05 04:26:08;;;;;;;0.10;0.10;;;10.70;99.90;12.80;163505.00;;;;4978148;28;20231;-77
2023/01/05 04:28:37;;;;;;;0.10;0.10;;;10.60;99.90;12.80;163505.00;;;;4981368;28;20204;-77
2023/01/05 04:31:05;;;;;;;0.10;0.10;;;10.60;99.90;12.80;163505.00;;;;4980830;28;20208;-78
2023/01/05 04:33:34;;;;;;;0.10;0.10;;;10.60;99.90;12.80;163505.00;;;;4999271;28;20682;-78
2023/01/05 04:36:03;;;;;;;0.10;0.10;;;10.60;99.90;12.80;163505.00;;;;4994835;28;20228;-76
2023/01/05 04:38:33;;;;;;;0.10;0.10;;;10.50;99.90;12.80;163505.00;;;;4982519;28;20227;-76
2023/01/05 04:41:01;;;;;;;0.10;0.10;;;10.50;99.90;12.80;163505.00;;;;4983164;28;20204;-77
2023/01/05 04:43:29;;;;;;;0.10;0.10;;;10.40;99.90;12.80;163505.00;;;;4997020;28;20224;-75
2023/01/05 04:46:01;;;;;;;0.10;0.10;;;10.50;99.90;12.80;163505.00;;;;5002290;23;20243;-74
2023/01/05 04:48:30;;;;;;;0.10;0.10;;;10.40;99.90;12.80;163505.00;;;;4967285;28;20196;-74
2023/01/05 04:50:59;;;;;;;0.10;0.10;;;10.40;99.90;12.80;163505.00;;;;4974148;28;20676;-74
2023/01/05 04:53:33;;;;;;;0.10;0.10;;;10.40;99.90;12.80;163505.00;;;;4968900;28;20284;-75
2023/01/05 04:56:02;;;;;;;0.10;0.10;;;10.30;99.90;12.80;163505.00;;;;5002218;28;20327;-74
2023/01/05 04:58:35;;;;;;;0.10;0.10;;;10.40;99.90;12.80;163505.00;;;;4955481;28;20197;-74
2023/01/05 05:01:03;;;;;;;0.10;0.10;;;10.40;99.90;12.80;163505.00;;;;4969520;28;20216;-74
2023/01/05 05:03:34;;;;;;;0.10;0.10;;;10.40;99.90;12.80;163505.00;;;;4962854;28;20208;-73
2023/01/05 05:06:05;;;;;;;0.10;0.10;;;10.30;99.90;12.80;163505.00;;;;4954930;28;20232;-73
2023/01/05 05:08:35;;;;;;;0.10;0.10;;;10.30;99.90;12.80;163505.00;;;;4967693;28;20201;-74
2023/01/05 05:11:04;;;;;;;0.10;0.10;;;10.30;99.90;12.80;163505.00;;;;4946314;28;20264;-73
2023/01/05 05:13:35;;;;;;;0.10;0.10;;;10.30;99.90;12.80;163505.00;;;;4969370;28;20211;-74
2023/01/05 05:16:04;;;;;;;0.10;0.10;;;10.30;99.90;12.80;163505.00;;;;4951283;28;20316;-74
2023/01/05 05:18:33;;;;;;;0.10;0.10;;;10.30;99.90;12.80;163505.00;;;;4959027;28;20221;-74
2023/01/05 05:21:03;;;;;;;0.10;0.10;;;10.30;99.90;12.80;163505.00;;;;4964469;28;20205;-74
2023/01/05 05:23:37;;;;;;;0.10;0.10;;;10.30;99.90;12.80;163505.00;;;;4985566;28;20200;-73
2023/01/05 05:26:05;;;;;;;0.10;0.10;;;10.30;99.90;12.80;163505.00;;;;4953697;28;20606;-72
2023/01/05 05:28:34;;;;;;;0.05;0.05;;;10.20;99.90;12.80;163505.00;;;;4978441;28;20224;-73
2023/01/05 05:31:02;;;;;;;0.10;0.10;;;10.20;99.90;12.80;163505.00;;;;4971113;28;20614;-73
2023/01/05 05:33:30;;;;;;;0.10;0.10;;;10.20;99.90;12.80;163505.00;;;;4980731;28;20542;-73
2023/01/05 05:35:58;;;;;;;0.10;0.10;;;10.10;99.90;12.80;163505.00;;;;4970728;28;20218;-73
2023/01/05 05:38:26;;;;;;;0.10;0.10;;;10.10;99.90;12.80;163505.00;;;;4985003;28;20204;-73
2023/01/05 05:40:55;;;;;;;0.10;0.10;;;10.10;99.90;12.80;163505.00;;;;4953956;28;20233;-72
2023/01/05 05:43:23;;;;;;;0.10;0.10;;;10.10;99.90;12.80;163505.00;;;;4961538;28;20201;-73
2023/01/05 05:45:51;;;;;;;0.10;0.10;;;10.00;99.90;12.80;163505.00;;;;4960953;28;20233;-73
2023/01/05 05:48:19;;;;;;;0.10;0.10;;;10.00;99.90;12.80;163505.00;;;;4971506;28;20229;-73
2023/01/05 05:50:47;;;;;;;0.10;0.10;;;10.00;99.90;12.80;163505.00;;;;4973397;28;20213;-74
2023/01/05 05:53:15;;;;;;;0.10;0.10;;;9.90;99.90;12.80;163505.00;;;;4969259;28;20196;-73
2023/01/05 05:55:47;;;;;;;0.10;0.10;;;9.90;99.90;12.80;163505.00;;;;4974010;28;20768;-73
2023/01/05 05:58:16;;;;;;;0.10;0.10;;;9.90;99.90;12.80;163505.00;;;;4973227;28;20228;-73
2023/01/05 06:00:45;;;;;;;0.10;0.10;;;9.80;99.90;12.80;163505.00;;;;4968336;28;20226;-74
2023/01/05 06:03:13;;;;;;;0.10;0.10;;;9.80;99.90;12.80;163505.00;;;;4985157;28;20189;-73
2023/01/05 06:05:41;;;;;;;0.10;0.10;;;9.80;99.90;12.80;163505.00;;;;4978578;28;20285;-74
2023/01/05 06:08:09;;;;;;;0.10;0.10;;;9.80;99.90;12.80;163505.00;;;;4965532;28;20201;-72
2023/01/05 06:10:37;;;;;;;0.10;0.10;;;9.80;99.90;12.80;163505.00;;;;4967954;28;20209;-73
2023/01/05 06:13:06;;;;;;;0.10;0.10;;;9.80;99.90;12.80;163505.00;;;;4950968;28;20214;-73
2023/01/05 06:15:35;;;;;;;0.10;0.10;;;9.80;99.90;12.80;163505.00;;;;4973400;28;20201;-74
2023/01/05 06:18:03;;;;;;;0.10;0.10;;;9.80;99.90;12.80;163505.00;;;;4966723;28;20202;-73
2023/01/05 06:20:31;;;;;;;0.10;0.10;;;9.80;99.90;12.80;163505.00;;;;4973947;28;20220;-74
2023/01/05 06:22:59;;;;;;;0.10;0.10;;;9.80;99.90;12.80;163505.00;;;;4977084;28;20200;-74
2023/01/05 06:25:27;;;;;;;0.10;0.10;;;9.80;99.90;12.80;163505.00;;;;4981184;28;20204;-73
2023/01/05 06:27:55;;;;;;;0.10;0.10;;;9.80;99.90;12.80;163505.00;;;;4969140;28;20205;-73
2023/01/05 06:30:23;;;;;;;0.10;0.10;;;9.70;99.90;12.80;163505.00;;;;4970468;28;20256;-73
2023/01/05 06:32:52;;;;;;;0.10;0.10;;;9.70;99.90;12.80;163505.00;;;;4971514;28;20209;-74
2023/01/05 06:35:20;;;;;;;0.10;0.10;;;9.70;99.90;12.80;163505.00;;;;4967535;28;20677;-73
2023/01/05 06:37:48;;;;;;;0.10;0.10;;;9.60;99.90;12.80;163505.00;;;;4987341;28;20200;-73
2023/01/05 06:40:17;;;;;;;0.10;0.10;;;9.60;99.90;12.80;163505.00;;;;4965715;28;20700;-73
2023/01/05 06:42:44;;;;;;;0.10;0.10;;;9.60;99.90;12.80;163505.00;;;;4977372;28;20728;-73
2023/01/05 06:45:15;;;;;;;0.10;0.10;;;9.60;99.90;12.80;163505.00;;;;4975672;28;20192;-72
2023/01/05 06:47:44;;;;;;;0.10;0.10;;;9.60;99.90;12.80;163505.00;;;;4982673;28;20689;-72
2023/01/05 06:50:13;;;;;;;0.10;0.10;;;9.50;99.90;12.80;163505.00;;;;4975778;28;20316;-71
2023/01/05 06:52:41;;;;;;;0.10;0.10;;;9.60;99.90;12.80;163505.00;;;;4965609;28;20206;-73
2023/01/05 06:55:11;;;;;;;0.10;0.10;;;9.60;99.90;12.80;163505.00;;;;4974399;28;20271;-71
2023/01/05 06:57:39;;;;;;;0.10;0.10;;;9.50;99.90;12.80;163505.00;;;;4967330;28;20689;-71
2023/01/05 07:00:11;;;;;;;0.10;0.10;;;9.50;99.90;12.80;163505.00;;;;4967841;28;20645;-71
2023/01/05 07:02:39;;;;;;;0.10;0.10;;;9.50;99.90;12.80;163505.00;;;;4959017;28;20201;-71
2023/01/05 07:05:08;;;;;;;0.10;0.10;;;9.50;99.90;12.80;163505.00;;;;4976986;28;20198;-72
2023/01/05 07:07:38;;;;;;;0.10;0.10;;;9.50;99.90;12.80;163505.00;;;;4960330;28;20225;-72
2023/01/05 07:10:07;;;;;;;0.10;0.10;;;9.40;99.90;12.80;163505.00;;;;4974616;28;20209;-71
2023/01/05 07:12:35;;;;;;;0.10;0.10;;;9.30;99.90;12.80;163505.00;;;;4965371;28;20252;-72
2023/01/05 07:15:04;;;;;;;0.10;0.10;;;9.30;99.90;12.80;163505.00;;;;4976223;28;20206;-71
2023/01/05 07:17:33;;;;;;;0.10;0.10;;;9.20;99.90;12.80;163505.00;;;;4973524;28;20323;-72
2023/01/05 07:20:01;;;;;;;0.10;0.10;;;9.20;99.90;12.80;163505.00;;;;4977876;28;20916;-72
2023/01/05 07:22:30;;;;;;;0.10;0.10;;;9.20;99.90;12.80;163505.00;;;;4974390;28;20622;-71
2023/01/05 07:24:59;;;;;;;0.10;0.10;;;9.20;99.90;12.80;163505.00;;;;4968268;28;20662;-72
2023/01/05 07:27:27;;;;;;;0.10;0.10;;;9.10;99.90;12.80;163505.00;;;;4966519;28;20272;-72
2023/01/05 07:29:55;;;;;;;0.10;0.10;;;9.10;99.90;12.80;163505.00;;;;4975020;28;20224;-73
2023/01/05 07:32:23;;;;;;;0.10;0.10;;;9.10;99.90;12.80;163505.00;;;;4976438;28;20331;-73
2023/01/05 07:34:51;;;;;;;0.10;0.10;;;9.10;99.90;12.80;163505.00;;;;4980291;28;20257;-73
2023/01/05 07:37:24;;;;;;;0.10;0.10;;;9.00;99.90;12.80;163505.00;;;;4971768;28;20216;-72
2023/01/05 07:39:52;;;;;;;0.10;0.10;;;9.00;99.90;12.80;163505.00;;;;4967661;28;20200;-72
2023/01/05 07:42:22;;;;;;;0.10;0.10;;;9.00;99.90;12.80;163505.00;;;;4969846;28;20201;-72
2023/01/05 07:44:51;;;;;;;0.10;0.10;;;8.90;99.90;12.80;163505.00;;;;4968619;28;20247;-73
2023/01/05 07:47:19;;;;;;;0.10;0.10;;;8.90;99.90;12.80;163505.00;;;;4975945;28;20709;-72
2023/01/05 07:49:47;;;;;;;0.10;0.10;;;8.90;99.90;12.80;163505.00;;;;4972177;28;20689;-73
2023/01/05 07:52:15;;;;;;;0.10;0.10;;;8.90;99.90;12.80;163505.00;;;;4971918;28;20208;-73
2023/01/05 07:54:44;;;;;;;0.10;0.10;;;8.90;99.90;12.80;163505.00;;;;4977428;28;20193;-72
2023/01/05 07:57:12;;;;;;;0.10;0.10;;;8.90;99.90;12.80;163505.00;;;;4965359;28;20221;-72
2023/01/05 07:59:41;;;;;;;0.10;0.10;;;8.90;99.90;12.80;163505.00;;;;4973739;28;20266;-72
2023/01/05 08:02:10;;;;;;;0.10;0.10;;;8.90;99.90;12.80;163505.00;;;;4971924;28;20294;-73
2023/01/05 08:04:38;;;;;;;0.10;0.10;;;8.90;99.90;12.80;163505.00;;;;4970141;28;20199;-73
2023/01/05 08:07:10;;;;;;;0.10;0.10;;;8.90;99.90;12.80;163505.00;;;;4964595;28;20245;-72
2023/01/05 08:12:23;;;;;;;0.10;0.10;;;8.90;99.90;12.80;163505.00;;;;4967366;28;20623;-72
2023/01/05 08:14:52;;;;;;;0.10;0.10;;;8.90;99.90;12.80;163505.00;;;;4952720;28;20221;-72
2023/01/05 08:17:20;;;;;;;0.10;0.10;;;8.90;99.90;12.80;163505.00;;;;4967842;28;20232;-72
2023/01/05 08:19:48;;;;;;;0.10;0.10;;;9.00;99.90;12.80;163505.00;;;;4971637;28;20260;-72
2023/01/05 08:22:16;;;;;;;0.10;0.10;;;9.00;99.90;12.80;163505.00;;;;4972593;28;20231;-73
2023/01/05 08:24:44;;;;;;;0.10;0.10;;;9.00;99.90;12.80;163505.00;;;;4965692;28;20202;-72
2023/01/05 08:27:12;;;;;;;0.10;0.10;;;9.10;99.90;12.80;163505.00;;;;4978233;28;20829;-72
2023/01/05 08:29:40;;;;;;;0.10;0.10;;;9.10;99.90;12.80;163505.00;;;;4965725;28;20296;-72
2023/01/05 08:32:09;;;;;;;0.10;0.10;;;9.10;99.90;12.80;163505.00;;;;4972117;28;20208;-73
2023/01/05 08:34:38;;;;;;;0.10;0.10;;;9.20;99.90;12.80;163505.00;;;;4953918;28;20208;-73
2023/01/05 08:37:06;;;;;;;0.10;0.10;;;9.20;99.90;12.80;163505.00;;;;4965853;28;20222;-72
2023/01/05 08:39:35;;;;;;;0.10;0.10;;;9.20;99.90;12.80;163505.00;;;;4956559;28;20226;-72
2023/01/05 08:42:03;;;;;;;0.10;0.10;;;9.20;99.90;12.80;163505.00;;;;4967017;28;20226;-73
2023/01/05 08:44:31;;;;;;;0.10;0.10;;;9.30;99.90;12.80;163505.00;;;;4975192;28;20914;-72
2023/01/05 08:46:59;;;;;;;0.10;0.10;;;9.30;99.90;12.80;163505.00;;;;4985967;28;20224;-72
2023/01/05 08:49:28;;;;;;;0.10;0.10;;;9.30;99.90;12.80;163505.00;;;;4970539;28;20195;-73
2023/01/05 08:51:56;;;;;;;0.10;0.10;;;9.30;99.90;12.80;163505.00;;;;4944763;28;20209;-72
2023/01/05 08:54:24;;;;;;;0.10;0.10;;;9.40;99.90;12.80;163505.00;;;;4969752;28;20604;-73
2023/01/05 08:56:52;;;;;;;0.10;0.10;;;9.40;99.90;12.80;163505.00;;;;4971107;28;20236;-73
2023/01/05 08:59:20;;;;;;;0.10;0.10;;;9.40;99.90;12.80;163505.00;;;;4972328;28;20212;-72
2023/01/05 09:01:48;;;;;;;0.10;0.10;;;9.40;99.90;12.80;163505.00;;;;4965015;28;20221;-72
2023/01/05 09:04:16;;;;;;;0.10;0.10;;;9.40;99.90;12.80;163505.00;;;;4960620;28;20695;-73
2023/01/05 09:06:45;;;;;;;0.10;0.10;;;9.50;99.90;12.80;163505.00;;;;4966869;28;20217;-72
2023/01/05 09:09:13;;;;;;;0.10;0.10;;;9.50;99.90;12.80;163505.00;;;;4971129;28;20264;-72
2023/01/05 09:11:41;;;;;;;0.10;0.10;;;9.50;99.90;12.80;163505.00;;;;4975077;28;20198;-72
2023/01/05 09:14:14;;;;;;;0.10;0.10;;;9.60;99.90;12.80;163505.00;;;;4965635;28;20264;-72
2023/01/05 09:16:42;;;;;;;0.10;0.10;;;9.60;99.90;12.80;163505.00;;;;4965201;28;20721;-73
2023/01/05 09:19:30;;;;;;;0.10;0.10;;;9.50;99.90;12.80;163505.00;;;;4966899;28;20743;-72
2023/01/05 09:21:59;;;;;;;0.10;0.10;;;9.50;99.90;12.80;163505.00;;;;4972650;28;20276;-73
2023/01/05 09:24:27;;;;;;;0.10;0.10;;;9.60;99.90;12.80;163505.00;;;;4969225;28;20610;-73
2023/01/05 09:26:56;;;;;;;0.10;0.10;;;9.60;99.90;12.80;163505.00;;;;4967024;28;20249;-72
2023/01/05 09:29:24;;;;;;;0.10;0.10;;;9.60;99.90;12.80;163505.00;;;;4977387;28;20665;-73
2023/01/05 09:31:52;;;;;;;0.10;0.10;;;9.70;99.90;12.80;163505.00;;;;4951461;28;20256;-73
2023/01/05 09:34:20;;;;;;;0.10;0.10;;;9.70;99.90;12.80;163505.00;;;;4974828;28;20196;-73
2023/01/05 09:36:48;;;;;;;0.10;0.10;;;9.70;99.90;12.80;163505.00;;;;4968097;28;20240;-72
2023/01/05 09:39:17;;;;;;;0.10;0.10;;;9.70;99.90;12.80;163505.00;;;;4979603;28;20200;-72
2023/01/05 09:41:50;;;;;;;0.10;0.10;;;9.70;99.90;12.80;163505.00;;;;4972559;28;20213;-72
2023/01/05 09:44:29;;;;;;;0.10;0.10;;;9.70;99.90;12.80;163505.00;;;;4986609;28;21429;-72
2023/01/05 09:47:03;;;;;;;0.10;0.10;;;9.70;99.90;12.80;163505.00;;;;4975988;28;20224;-72
2023/01/05 09:49:33;;;;;;;0.10;0.10;;;9.70;99.90;12.80;163505.00;;;;4973835;28;20204;-72
2023/01/05 09:52:08;;;;;;;0.10;0.10;;;9.70;99.90;12.80;163505.00;;;;4960506;28;20210;-72
2023/01/05 09:54:39;;;;;;;0.10;0.10;;;9.80;99.90;12.80;163505.00;;;;4964377;28;20661;-72
2023/01/05 09:57:17;;;;;;;0.10;0.10;;;9.80;99.90;12.80;163505.00;;;;4969509;28;20702;-72
2023/01/05 09:59:49;;;;;;;0.10;0.10;;;9.80;99.90;12.80;163505.00;;;;4961219;28;20256;-72
2023/01/05 10:02:26;;;;;;;0.10;0.10;;;9.80;99.90;12.80;163505.00;;;;4964666;28;20319;-72
2023/01/05 10:04:56;;;;;;;0.10;0.10;;;9.80;99.90;12.80;163505.00;;;;4951383;28;20255;-71
2023/01/05 10:07:38;;;;;;;0.10;0.10;;;9.80;99.90;12.80;163505.00;;;;4963382;28;20222;-71
2023/01/05 10:10:25;;;;;;;0.10;0.10;;;9.80;99.90;12.80;163505.00;;;;4962029;28;20228;-72
2023/01/05 10:13:02;;;;;;;0.10;0.10;;;9.80;99.90;12.80;163505.00;;;;4964917;28;20292;-71
2023/01/05 10:15:39;;;;;;;0.10;0.10;;;9.80;99.90;12.80;163505.00;;;;4969733;28;20313;-73
2023/01/05 10:18:14;;;;;;;0.10;0.10;;;9.90;99.90;12.80;163505.00;;;;4969222;28;20205;-72
2023/01/05 10:21:01;;;;;;;0.10;0.10;;;9.80;99.90;12.80;163505.00;;;;4966699;28;20193;-71
2023/01/05 10:24:01;;;;;;;0.10;0.10;;;9.80;99.90;12.80;163505.00;;;;4966660;28;20718;-72
2023/01/05 10:26:43;;;;;;;0.10;0.10;;;9.90;99.90;12.80;163505.00;;;;4967870;28;20221;-72
2023/01/05 10:29:39;;;;;;;0.10;0.10;;;9.80;99.90;12.80;163505.00;;;;4971258;28;20200;-73
2023/01/05 10:32:23;;;;;;;0.10;0.10;;;9.80;99.90;12.80;163505.00;;;;4964328;28;20268;-73
2023/01/05 10:35:01;;;;;;;0.10;0.10;;;9.80;99.90;12.80;163505.00;;;;4966266;28;20561;-73
2023/01/05 10:37:52;;;;;;;0.10;0.10;;;9.80;99.90;12.80;163505.00;;;;4970845;28;20232;-73
2023/01/05 10:40:38;;;;;;;0.10;0.10;;;9.80;99.90;12.80;163505.00;;;;4971701;28;20193;-73
2023/01/05 10:43:54;;;;;;;0.10;0.10;;;9.90;99.90;12.80;163505.00;;;;4977989;28;20241;-75
2023/01/05 10:46:22;;;;;;;0.10;0.10;;;9.90;99.90;12.80;163505.00;;;;4950543;23;20232;-75
2023/01/05 10:49:20;;;;;;;0.10;0.10;;;9.90;99.90;12.80;163505.00;;;;4995653;28;20231;-75
2023/01/05 10:51:51;;;;;;;0.10;0.10;;;9.90;99.90;12.80;163505.00;;;;4991360;28;20223;-75
2023/01/05 10:54:36;;;;;;;0.10;0.10;;;9.90;99.90;12.80;163505.00;;;;4973031;28;20236;-75
2023/01/05 10:57:37;;;;;;;0.10;0.10;;;9.90;99.90;12.80;163505.00;;;;4994503;28;20224;-75
2023/01/05 11:00:14;;;;;;;0.10;0.10;;;9.90;99.90;12.80;163505.00;;;;4997701;28;20199;-75
2023/01/05 11:02:50;;;;;;;0.10;0.10;;;9.80;99.90;12.80;163505.00;;;;4997273;28;20223;-75
2023/01/05 11:05:38;;;;;;;0.10;0.10;;;9.80;99.90;12.80;163505.00;;;;4994963;28;20196;-75
2023/01/05 11:08:15;;;;;;;0.10;0.10;;;9.80;99.90;12.80;163505.00;;;;4993602;28;20211;-75
2023/01/05 11:10:52;;;;;;;0.10;0.10;;;9.90;99.90;12.80;163505.00;;;;4995812;28;20559;-74
2023/01/05 11:13:31;;;;;;;0.10;0.10;;;9.90;99.90;12.80;163505.00;;;;4993665;28;20207;-74
2023/01/05 11:16:09;;;;;;;0.10;0.10;;;9.90;99.90;12.80;163505.00;;;;4986459;28;20224;-75
2023/01/05 11:18:48;;;;;;;0.10;0.10;;;9.90;99.90;12.80;163505.00;;;;4999857;28;20287;-76
2023/01/05 11:21:18;;;;;;;0.10;0.10;;;9.90;99.90;12.80;163505.00;;;;4995507;28;20200;-75
2023/01/05 11:23:49;;;;;;;0.10;0.10;;;9.90;99.90;12.80;163505.00;;;;4976988;28;20286;-76
2023/01/05 11:26:28;;;;;;;0.10;0.10;;;9.90;99.90;12.80;163505.00;;;;4995420;28;20803;-75
2023/01/05 11:29:13;;;;;;;0.10;0.10;;;9.90;99.90;12.80;163505.00;;;;4988108;28;20207;-75
2023/01/05 11:31:49;;;;;;;0.10;0.10;;;10.00;99.90;12.80;163505.00;;;;4992168;28;20243;-75
2023/01/05 11:34:37;;;;;;;0.10;0.10;;;10.00;99.90;12.80;163505.00;;;;4991049;28;20201;-76
2023/01/05 11:37:20;;;;;;;0.10;0.10;;;9.90;99.90;12.80;163505.00;;;;4992515;28;20338;-75
2023/01/05 11:39:52;;;;;;;0.10;0.10;;;9.80;99.90;12.80;163505.00;;;;4994089;28;20204;-75
2023/01/05 11:42:30;;;;;;;0.10;0.10;;;9.70;99.90;12.80;163505.00;;;;4989998;28;20220;-75
2023/01/05 11:45:01;;;;;;;0.10;0.10;;;9.60;99.90;12.80;163505.00;;;;4989064;28;20720;-75
2023/01/05 11:47:36;;;;;;;0.10;0.10;;;9.60;99.90;12.80;163505.00;;;;4987745;28;20220;-75